Terminal Aerodrome Forecast
Issued by NWS

Home | Current Version | Previous Version | Text Only | Print | Product List | Glossary On
Versions: 1 2 3 4 5 6 7 8 9 10 11 12 13 14 15 16 17 18 19 20 21 22 23 24 25 26 27 28 29 30 31 32 33 34
000
FTAK31 PANC 300536
TAFAAQ
TAF
PAAQ 300536Z 3006/3106 VRB03KT P6SM VCSH BKN045 OVC060
      TEMPO 3006/3010 -SHRA
     FM301400 VRB03KT P6SM SCT045 OVC060
     FM302000 22005KT P6SM SCT050 OVC080=

USA.gov is the U.S. government's official web portal to all federal, state and local government web resources and services.